sensor_id;sensor_type;location;lat;lon;timestamp;P1;durP1;ratioP1;P2;durP2;ratioP2
12554;SDS011;6343;50.868;4.700;2023-03-14T00:01:54;5.30;;;1.00;;
12554;SDS011;6343;50.868;4.700;2023-03-14T00:04:20;6.23;;;1.10;;
12554;SDS011;6343;50.868;4.700;2023-03-14T00:06:46;3.27;;;1.50;;
12554;SDS011;6343;50.868;4.700;2023-03-14T00:09:14;3.97;;;1.53;;
12554;SDS011;6343;50.868;4.700;2023-03-14T00:11:40;3.13;;;1.00;;
12554;SDS011;6343;50.868;4.700;2023-03-14T00:14:07;5.77;;;1.33;;
12554;SDS011;6343;50.868;4.700;2023-03-14T00:16:33;4.37;;;1.20;;
12554;SDS011;6343;50.868;4.700;2023-03-14T00:18:59;4.10;;;1.43;;
12554;SDS011;6343;50.868;4.700;2023-03-14T00:21:25;7.93;;;1.93;;
12554;SDS011;6343;50.868;4.700;2023-03-14T00:23:52;8.10;;;1.60;;
12554;SDS011;6343;50.868;4.700;2023-03-14T00:26:19;4.17;;;1.50;;
12554;SDS011;6343;50.868;4.700;2023-03-14T00:28:45;7.63;;;2.03;;
12554;SDS011;6343;50.868;4.700;2023-03-14T00:31:15;7.97;;;1.50;;
12554;SDS011;6343;50.868;4.700;2023-03-14T00:33:41;7.37;;;1.70;;
12554;SDS011;6343;50.868;4.700;2023-03-14T00:36:09;6.57;;;1.77;;
12554;SDS011;6343;50.868;4.700;2023-03-14T00:38:35;6.83;;;1.77;;
12554;SDS011;6343;50.868;4.700;2023-03-14T00:41:09;5.07;;;1.77;;
12554;SDS011;6343;50.868;4.700;2023-03-14T00:43:36;8.83;;;1.70;;
12554;SDS011;6343;50.868;4.700;2023-03-14T00:46:02;4.60;;;1.53;;
12554;SDS011;6343;50.868;4.700;2023-03-14T00:48:28;5.03;;;1.40;;
12554;SDS011;6343;50.868;4.700;2023-03-14T00:50:54;4.70;;;1.90;;
12554;SDS011;6343;50.868;4.700;2023-03-14T00:53:21;4.00;;;1.70;;
12554;SDS011;6343;50.868;4.700;2023-03-14T00:55:47;5.37;;;1.30;;
12554;SDS011;6343;50.868;4.700;2023-03-14T00:58:14;7.13;;;1.50;;
12554;SDS011;6343;50.868;4.700;2023-03-14T01:00:41;7.47;;;1.80;;
12554;SDS011;6343;50.868;4.700;2023-03-14T01:03:08;5.73;;;1.60;;
12554;SDS011;6343;50.868;4.700;2023-03-14T01:05:34;6.10;;;1.70;;
12554;SDS011;6343;50.868;4.700;2023-03-14T01:08:00;9.90;;;2.00;;
12554;SDS011;6343;50.868;4.700;2023-03-14T01:10:27;6.33;;;1.80;;
12554;SDS011;6343;50.868;4.700;2023-03-14T01:12:53;5.30;;;2.00;;
12554;SDS011;6343;50.868;4.700;2023-03-14T01:15:19;4.27;;;1.57;;
12554;SDS011;6343;50.868;4.700;2023-03-14T01:17:45;9.07;;;1.93;;
12554;SDS011;6343;50.868;4.700;2023-03-14T01:20:12;6.87;;;1.57;;
12554;SDS011;6343;50.868;4.700;2023-03-14T01:22:39;5.53;;;1.80;;
12554;SDS011;6343;50.868;4.700;2023-03-14T01:25:06;8.20;;;1.80;;
12554;SDS011;6343;50.868;4.700;2023-03-14T01:27:32;7.80;;;1.70;;
12554;SDS011;6343;50.868;4.700;2023-03-14T01:29:58;8.27;;;2.10;;
12554;SDS011;6343;50.868;4.700;2023-03-14T01:32:24;7.73;;;1.90;;
12554;SDS011;6343;50.868;4.700;2023-03-14T01:34:51;5.50;;;1.60;;
12554;SDS011;6343;50.868;4.700;2023-03-14T01:37:17;8.20;;;1.93;;
12554;SDS011;6343;50.868;4.700;2023-03-14T01:39:43;5.20;;;1.43;;
12554;SDS011;6343;50.868;4.700;2023-03-14T01:42:09;8.77;;;1.67;;
12554;SDS011;6343;50.868;4.700;2023-03-14T01:47:13;5.67;;;1.60;;
12554;SDS011;6343;50.868;4.700;2023-03-14T01:49:39;5.30;;;1.70;;
12554;SDS011;6343;50.868;4.700;2023-03-14T01:52:13;11.87;;;1.70;;
12554;SDS011;6343;50.868;4.700;2023-03-14T01:54:55;12.80;;;2.03;;
12554;SDS011;6343;50.868;4.700;2023-03-14T02:00:07;4.27;;;1.67;;
12554;SDS011;6343;50.868;4.700;2023-03-14T02:02:39;9.50;;;1.70;;
12554;SDS011;6343;50.868;4.700;2023-03-14T02:05:08;5.60;;;1.60;;
12554;SDS011;6343;50.868;4.700;2023-03-14T02:07:48;4.20;;;1.37;;
12554;SDS011;6343;50.868;4.700;2023-03-14T02:10:16;3.97;;;1.20;;
12554;SDS011;6343;50.868;4.700;2023-03-14T02:12:44;2.37;;;0.90;;
12554;SDS011;6343;50.868;4.700;2023-03-14T02:15:11;4.93;;;1.53;;
12554;SDS011;6343;50.868;4.700;2023-03-14T02:17:37;5.90;;;1.80;;
12554;SDS011;6343;50.868;4.700;2023-03-14T02:20:15;5.00;;;1.10;;
12554;SDS011;6343;50.868;4.700;2023-03-14T02:22:45;4.07;;;1.20;;
12554;SDS011;6343;50.868;4.700;2023-03-14T02:27:40;5.53;;;1.20;;
12554;SDS011;6343;50.868;4.700;2023-03-14T02:30:11;10.13;;;1.27;;
12554;SDS011;6343;50.868;4.700;2023-03-14T02:32:38;4.17;;;1.20;;
12554;SDS011;6343;50.868;4.700;2023-03-14T02:35:06;5.43;;;1.13;;
12554;SDS011;6343;50.868;4.700;2023-03-14T02:37:39;6.87;;;1.47;;
12554;SDS011;6343;50.868;4.700;2023-03-14T02:40:06;4.70;;;0.90;;
12554;SDS011;6343;50.868;4.700;2023-03-14T02:42:33;2.67;;;1.10;;
12554;SDS011;6343;50.868;4.700;2023-03-14T02:45:01;3.43;;;1.10;;
12554;SDS011;6343;50.868;4.700;2023-03-14T02:47:46;2.17;;;0.90;;
12554;SDS011;6343;50.868;4.700;2023-03-14T02:50:18;3.20;;;1.07;;
12554;SDS011;6343;50.868;4.700;2023-03-14T02:52:44;2.73;;;0.77;;
12554;SDS011;6343;50.868;4.700;2023-03-14T02:55:11;3.67;;;0.90;;
12554;SDS011;6343;50.868;4.700;2023-03-14T02:57:37;5.60;;;1.23;;
12554;SDS011;6343;50.868;4.700;2023-03-14T03:00:03;4.00;;;1.53;;
12554;SDS011;6343;50.868;4.700;2023-03-14T03:02:30;3.10;;;1.60;;
12554;SDS011;6343;50.868;4.700;2023-03-14T03:04:56;4.63;;;1.20;;
12554;SDS011;6343;50.868;4.700;2023-03-14T03:07:23;5.43;;;1.30;;
12554;SDS011;6343;50.868;4.700;2023-03-14T03:09:49;2.73;;;0.87;;
12554;SDS011;6343;50.868;4.700;2023-03-14T03:12:15;3.67;;;1.00;;
12554;SDS011;6343;50.868;4.700;2023-03-14T03:14:41;4.37;;;1.20;;
12554;SDS011;6343;50.868;4.700;2023-03-14T03:17:07;6.70;;;1.20;;
12554;SDS011;6343;50.868;4.700;2023-03-14T03:19:34;4.40;;;1.10;;
12554;SDS011;6343;50.868;4.700;2023-03-14T03:22:00;5.87;;;1.27;;
12554;SDS011;6343;50.868;4.700;2023-03-14T03:24:26;4.27;;;1.47;;
12554;SDS011;6343;50.868;4.700;2023-03-14T03:26:52;6.63;;;1.40;;
12554;SDS011;6343;50.868;4.700;2023-03-14T03:29:18;5.87;;;1.63;;
12554;SDS011;6343;50.868;4.700;2023-03-14T03:31:44;6.77;;;1.83;;
12554;SDS011;6343;50.868;4.700;2023-03-14T03:34:11;5.67;;;1.90;;
12554;SDS011;6343;50.868;4.700;2023-03-14T03:36:38;6.30;;;2.70;;
12554;SDS011;6343;50.868;4.700;2023-03-14T03:39:05;5.23;;;1.70;;
12554;SDS011;6343;50.868;4.700;2023-03-14T03:41:31;7.47;;;1.83;;
12554;SDS011;6343;50.868;4.700;2023-03-14T03:43:57;4.37;;;1.60;;
12554;SDS011;6343;50.868;4.700;2023-03-14T03:46:24;5.90;;;2.10;;
12554;SDS011;6343;50.868;4.700;2023-03-14T03:48:57;4.43;;;1.77;;
12554;SDS011;6343;50.868;4.700;2023-03-14T03:51:23;7.93;;;2.00;;
12554;SDS011;6343;50.868;4.700;2023-03-14T03:53:49;8.40;;;2.07;;
12554;SDS011;6343;50.868;4.700;2023-03-14T03:56:15;5.67;;;2.03;;
12554;SDS011;6343;50.868;4.700;2023-03-14T03:58:42;5.27;;;1.90;;
12554;SDS011;6343;50.868;4.700;2023-03-14T04:01:08;4.93;;;1.87;;
12554;SDS011;6343;50.868;4.700;2023-03-14T04:03:34;5.23;;;1.70;;
12554;SDS011;6343;50.868;4.700;2023-03-14T04:06:01;4.47;;;1.47;;
12554;SDS011;6343;50.868;4.700;2023-03-14T04:08:28;4.10;;;1.60;;
12554;SDS011;6343;50.868;4.700;2023-03-14T04:10:58;3.80;;;1.30;;
12554;SDS011;6343;50.868;4.700;2023-03-14T04:13:24;4.77;;;1.20;;
12554;SDS011;6343;50.868;4.700;2023-03-14T04:15:51;6.80;;;2.10;;
12554;SDS011;6343;50.868;4.700;2023-03-14T04:18:17;3.87;;;1.50;;
12554;SDS011;6343;50.868;4.700;2023-03-14T04:20:43;8.60;;;1.30;;
12554;SDS011;6343;50.868;4.700;2023-03-14T04:23:09;6.20;;;1.47;;
12554;SDS011;6343;50.868;4.700;2023-03-14T04:25:35;3.20;;;1.30;;
12554;SDS011;6343;50.868;4.700;2023-03-14T04:28:01;5.50;;;1.60;;
12554;SDS011;6343;50.868;4.700;2023-03-14T04:30:29;6.70;;;1.57;;
12554;SDS011;6343;50.868;4.700;2023-03-14T04:32:55;7.43;;;1.73;;
12554;SDS011;6343;50.868;4.700;2023-03-14T04:35:21;4.30;;;1.63;;
12554;SDS011;6343;50.868;4.700;2023-03-14T04:37:47;6.00;;;1.43;;
12554;SDS011;6343;50.868;4.700;2023-03-14T04:40:14;4.60;;;1.50;;
12554;SDS011;6343;50.868;4.700;2023-03-14T04:42:40;3.53;;;1.23;;
12554;SDS011;6343;50.868;4.700;2023-03-14T04:45:06;4.23;;;1.63;;
12554;SDS011;6343;50.868;4.700;2023-03-14T04:47:33;4.33;;;1.30;;
12554;SDS011;6343;50.868;4.700;2023-03-14T04:49:59;4.63;;;1.50;;
12554;SDS011;6343;50.868;4.700;2023-03-14T04:52:25;3.53;;;1.83;;
12554;SDS011;6343;50.868;4.700;2023-03-14T04:54:51;3.30;;;1.10;;
12554;SDS011;6343;50.868;4.700;2023-03-14T04:57:17;5.27;;;1.33;;
12554;SDS011;6343;50.868;4.700;2023-03-14T04:59:43;5.70;;;1.43;;
12554;SDS011;6343;50.868;4.700;2023-03-14T05:02:10;1.93;;;0.93;;
12554;SDS011;6343;50.868;4.700;2023-03-14T05:04:36;2.90;;;1.40;;
12554;SDS011;6343;50.868;4.700;2023-03-14T05:07:02;3.77;;;1.20;;
12554;SDS011;6343;50.868;4.700;2023-03-14T05:09:30;2.93;;;1.20;;
12554;SDS011;6343;50.868;4.700;2023-03-14T05:11:56;5.00;;;1.40;;
12554;SDS011;6343;50.868;4.700;2023-03-14T05:14:23;5.57;;;1.37;;
12554;SDS011;6343;50.868;4.700;2023-03-14T05:16:49;2.37;;;1.30;;
12554;SDS011;6343;50.868;4.700;2023-03-14T05:19:15;3.13;;;1.10;;
12554;SDS011;6343;50.868;4.700;2023-03-14T05:21:41;2.90;;;1.30;;
12554;SDS011;6343;50.868;4.700;2023-03-14T05:24:07;4.60;;;1.63;;
12554;SDS011;6343;50.868;4.700;2023-03-14T05:26:33;2.30;;;1.20;;
12554;SDS011;6343;50.868;4.700;2023-03-14T05:28:59;2.83;;;1.10;;
12554;SDS011;6343;50.868;4.700;2023-03-14T05:31:25;1.80;;;1.17;;
12554;SDS011;6343;50.868;4.700;2023-03-14T05:33:51;1.93;;;1.13;;
12554;SDS011;6343;50.868;4.700;2023-03-14T05:36:17;2.47;;;1.27;;
12554;SDS011;6343;50.868;4.700;2023-03-14T05:38:43;2.13;;;1.30;;
12554;SDS011;6343;50.868;4.700;2023-03-14T05:41:09;3.30;;;1.10;;
12554;SDS011;6343;50.868;4.700;2023-03-14T05:43:36;3.87;;;1.40;;
12554;SDS011;6343;50.868;4.700;2023-03-14T05:46:02;3.67;;;1.37;;
12554;SDS011;6343;50.868;4.700;2023-03-14T05:48:28;1.83;;;1.10;;
12554;SDS011;6343;50.868;4.700;2023-03-14T05:50:54;1.27;;;0.90;;
12554;SDS011;6343;50.868;4.700;2023-03-14T05:53:21;1.53;;;1.00;;
12554;SDS011;6343;50.868;4.700;2023-03-14T05:55:47;2.20;;;1.00;;
12554;SDS011;6343;50.868;4.700;2023-03-14T05:58:13;1.30;;;1.03;;
12554;SDS011;6343;50.868;4.700;2023-03-14T06:00:39;2.23;;;1.10;;
12554;SDS011;6343;50.868;4.700;2023-03-14T06:03:05;3.43;;;1.30;;
12554;SDS011;6343;50.868;4.700;2023-03-14T06:05:31;1.80;;;1.40;;
12554;SDS011;6343;50.868;4.700;2023-03-14T06:07:57;4.20;;;1.50;;
12554;SDS011;6343;50.868;4.700;2023-03-14T06:10:23;3.30;;;1.33;;
12554;SDS011;6343;50.868;4.700;2023-03-14T06:12:49;2.00;;;1.40;;
12554;SDS011;6343;50.868;4.700;2023-03-14T06:15:15;3.17;;;1.80;;
12554;SDS011;6343;50.868;4.700;2023-03-14T06:17:41;4.93;;;2.07;;
12554;SDS011;6343;50.868;4.700;2023-03-14T06:20:08;2.40;;;1.70;;
12554;SDS011;6343;50.868;4.700;2023-03-14T06:22:34;3.50;;;2.43;;
12554;SDS011;6343;50.868;4.700;2023-03-14T06:25:00;3.43;;;2.30;;
12554;SDS011;6343;50.868;4.700;2023-03-14T06:27:26;3.43;;;2.53;;
12554;SDS011;6343;50.868;4.700;2023-03-14T06:29:52;7.83;;;2.30;;
12554;SDS011;6343;50.868;4.700;2023-03-14T06:32:18;4.50;;;2.20;;
12554;SDS011;6343;50.868;4.700;2023-03-14T06:34:45;7.07;;;2.50;;
12554;SDS011;6343;50.868;4.700;2023-03-14T06:37:12;3.67;;;2.60;;
12554;SDS011;6343;50.868;4.700;2023-03-14T06:39:38;4.67;;;3.20;;
12554;SDS011;6343;50.868;4.700;2023-03-14T06:42:04;5.77;;;2.40;;
12554;SDS011;6343;50.868;4.700;2023-03-14T06:44:30;9.97;;;3.67;;
12554;SDS011;6343;50.868;4.700;2023-03-14T06:46:56;3.50;;;2.67;;
12554;SDS011;6343;50.868;4.700;2023-03-14T06:49:23;3.13;;;2.40;;
12554;SDS011;6343;50.868;4.700;2023-03-14T06:51:49;3.50;;;2.17;;
12554;SDS011;6343;50.868;4.700;2023-03-14T06:54:15;3.00;;;2.40;;
12554;SDS011;6343;50.868;4.700;2023-03-14T06:56:41;5.87;;;2.50;;
12554;SDS011;6343;50.868;4.700;2023-03-14T06:59:10;3.27;;;2.40;;
12554;SDS011;6343;50.868;4.700;2023-03-14T07:01:37;3.50;;;2.47;;
12554;SDS011;6343;50.868;4.700;2023-03-14T07:04:05;2.30;;;1.90;;
12554;SDS011;6343;50.868;4.700;2023-03-14T07:06:32;3.70;;;1.50;;
12554;SDS011;6343;50.868;4.700;2023-03-14T07:08:59;4.07;;;1.80;;
12554;SDS011;6343;50.868;4.700;2023-03-14T07:11:25;2.33;;;1.30;;
12554;SDS011;6343;50.868;4.700;2023-03-14T07:13:51;1.63;;;0.90;;
12554;SDS011;6343;50.868;4.700;2023-03-14T07:16:17;2.97;;;1.00;;
12554;SDS011;6343;50.868;4.700;2023-03-14T07:18:43;1.53;;;0.83;;
12554;SDS011;6343;50.868;4.700;2023-03-14T07:21:10;2.30;;;0.60;;
12554;SDS011;6343;50.868;4.700;2023-03-14T07:23:36;2.40;;;0.70;;
12554;SDS011;6343;50.868;4.700;2023-03-14T07:26:02;4.47;;;1.20;;
12554;SDS011;6343;50.868;4.700;2023-03-14T07:28:28;2.87;;;0.80;;
12554;SDS011;6343;50.868;4.700;2023-03-14T07:30:54;1.23;;;0.83;;
12554;SDS011;6343;50.868;4.700;2023-03-14T07:33:20;2.43;;;0.80;;
12554;SDS011;6343;50.868;4.700;2023-03-14T07:35:47;1.70;;;0.90;;
12554;SDS011;6343;50.868;4.700;2023-03-14T07:38:13;3.23;;;0.83;;
12554;SDS011;6343;50.868;4.700;2023-03-14T07:40:40;2.63;;;1.00;;
12554;SDS011;6343;50.868;4.700;2023-03-14T07:43:06;2.50;;;1.00;;
12554;SDS011;6343;50.868;4.700;2023-03-14T07:45:32;4.33;;;0.90;;
12554;SDS011;6343;50.868;4.700;2023-03-14T07:47:58;1.50;;;1.30;;
12554;SDS011;6343;50.868;4.700;2023-03-14T07:50:27;2.77;;;1.30;;
12554;SDS011;6343;50.868;4.700;2023-03-14T07:52:53;2.37;;;1.37;;
12554;SDS011;6343;50.868;4.700;2023-03-14T07:55:19;5.23;;;1.37;;
12554;SDS011;6343;50.868;4.700;2023-03-14T07:57:45;2.97;;;1.50;;
12554;SDS011;6343;50.868;4.700;2023-03-14T08:00:12;4.70;;;1.53;;
12554;SDS011;6343;50.868;4.700;2023-03-14T08:02:39;3.73;;;1.47;;
12554;SDS011;6343;50.868;4.700;2023-03-14T08:05:06;4.67;;;1.80;;
12554;SDS011;6343;50.868;4.700;2023-03-14T08:07:35;6.53;;;2.10;;
12554;SDS011;6343;50.868;4.700;2023-03-14T08:10:03;7.77;;;1.93;;
12554;SDS011;6343;50.868;4.700;2023-03-14T08:12:29;5.57;;;1.97;;
12554;SDS011;6343;50.868;4.700;2023-03-14T08:14:55;5.83;;;2.07;;
12554;SDS011;6343;50.868;4.700;2023-03-14T08:17:21;5.27;;;2.00;;
12554;SDS011;6343;50.868;4.700;2023-03-14T08:19:47;4.40;;;2.10;;
12554;SDS011;6343;50.868;4.700;2023-03-14T08:22:13;5.63;;;2.50;;
12554;SDS011;6343;50.868;4.700;2023-03-14T08:24:40;3.40;;;2.30;;
12554;SDS011;6343;50.868;4.700;2023-03-14T08:27:07;4.83;;;2.30;;
12554;SDS011;6343;50.868;4.700;2023-03-14T08:29:33;2.43;;;1.87;;
12554;SDS011;6343;50.868;4.700;2023-03-14T08:31:59;6.17;;;2.17;;
12554;SDS011;6343;50.868;4.700;2023-03-14T08:34:25;3.13;;;2.00;;
12554;SDS011;6343;50.868;4.700;2023-03-14T08:36:51;4.73;;;2.07;;
12554;SDS011;6343;50.868;4.700;2023-03-14T08:39:17;2.93;;;1.80;;
12554;SDS011;6343;50.868;4.700;2023-03-14T08:41:44;2.70;;;1.60;;
12554;SDS011;6343;50.868;4.700;2023-03-14T08:44:10;3.93;;;1.63;;
12554;SDS011;6343;50.868;4.700;2023-03-14T08:46:36;3.73;;;1.60;;
12554;SDS011;6343;50.868;4.700;2023-03-14T08:49:02;4.23;;;1.50;;
12554;SDS011;6343;50.868;4.700;2023-03-14T08:51:29;3.50;;;1.70;;
12554;SDS011;6343;50.868;4.700;2023-03-14T08:53:55;4.10;;;1.83;;
12554;SDS011;6343;50.868;4.700;2023-03-14T08:56:21;3.73;;;2.07;;
12554;SDS011;6343;50.868;4.700;2023-03-14T08:58:47;2.37;;;1.70;;
12554;SDS011;6343;50.868;4.700;2023-03-14T09:01:13;5.00;;;1.83;;
12554;SDS011;6343;50.868;4.700;2023-03-14T09:03:39;3.23;;;1.57;;
12554;SDS011;6343;50.868;4.700;2023-03-14T09:06:06;3.17;;;2.03;;
12554;SDS011;6343;50.868;4.700;2023-03-14T09:08:33;3.93;;;2.07;;
12554;SDS011;6343;50.868;4.700;2023-03-14T09:11:00;4.00;;;1.77;;
12554;SDS011;6343;50.868;4.700;2023-03-14T09:13:26;5.63;;;2.10;;
12554;SDS011;6343;50.868;4.700;2023-03-14T09:15:55;2.43;;;2.10;;
12554;SDS011;6343;50.868;4.700;2023-03-14T09:18:22;3.27;;;1.50;;
12554;SDS011;6343;50.868;4.700;2023-03-14T09:20:49;2.67;;;2.10;;
12554;SDS011;6343;50.868;4.700;2023-03-14T09:23:15;3.93;;;1.90;;
12554;SDS011;6343;50.868;4.700;2023-03-14T09:25:41;5.43;;;2.00;;
12554;SDS011;6343;50.868;4.700;2023-03-14T09:28:07;6.27;;;1.80;;
12554;SDS011;6343;50.868;4.700;2023-03-14T09:30:33;5.27;;;2.00;;
12554;SDS011;6343;50.868;4.700;2023-03-14T09:33:00;4.37;;;1.73;;
12554;SDS011;6343;50.868;4.700;2023-03-14T09:35:26;3.70;;;1.63;;
12554;SDS011;6343;50.868;4.700;2023-03-14T09:37:52;2.93;;;1.70;;
12554;SDS011;6343;50.868;4.700;2023-03-14T09:40:19;2.07;;;1.40;;
12554;SDS011;6343;50.868;4.700;2023-03-14T09:42:46;3.23;;;1.60;;
12554;SDS011;6343;50.868;4.700;2023-03-14T09:47:48;3.50;;;1.90;;
12554;SDS011;6343;50.868;4.700;2023-03-14T09:50:15;4.53;;;1.80;;
12554;SDS011;6343;50.868;4.700;2023-03-14T09:52:59;2.33;;;1.77;;
12554;SDS011;6343;50.868;4.700;2023-03-14T09:55:27;4.63;;;2.10;;
12554;SDS011;6343;50.868;4.700;2023-03-14T09:57:57;3.07;;;2.10;;
12554;SDS011;6343;50.868;4.700;2023-03-14T10:00:26;3.33;;;1.90;;
12554;SDS011;6343;50.868;4.700;2023-03-14T10:02:59;5.27;;;2.40;;
12554;SDS011;6343;50.868;4.700;2023-03-14T10:05:27;5.73;;;2.37;;
12554;SDS011;6343;50.868;4.700;2023-03-14T10:07:54;4.13;;;1.97;;
12554;SDS011;6343;50.868;4.700;2023-03-14T10:10:22;5.40;;;2.17;;
12554;SDS011;6343;50.868;4.700;2023-03-14T10:13:10;8.20;;;2.73;;
12554;SDS011;6343;50.868;4.700;2023-03-14T10:15:37;6.17;;;2.47;;
12554;SDS011;6343;50.868;4.700;2023-03-14T10:18:05;6.27;;;2.80;;
12554;SDS011;6343;50.868;4.700;2023-03-14T10:20:38;6.40;;;2.30;;
12554;SDS011;6343;50.868;4.700;2023-03-14T10:25:42;6.83;;;2.50;;
12554;SDS011;6343;50.868;4.700;2023-03-14T10:28:42;5.90;;;2.27;;
12554;SDS011;6343;50.868;4.700;2023-03-14T10:31:01;7.67;;;2.53;;
12554;SDS011;6343;50.868;4.700;2023-03-14T10:33:31;6.60;;;2.37;;
12554;SDS011;6343;50.868;4.700;2023-03-14T10:35:59;9.37;;;2.70;;
12554;SDS011;6343;50.868;4.700;2023-03-14T10:38:33;6.77;;;2.40;;
12554;SDS011;6343;50.868;4.700;2023-03-14T10:41:00;6.17;;;1.93;;
12554;SDS011;6343;50.868;4.700;2023-03-14T10:43:27;6.30;;;1.13;;
12554;SDS011;6343;50.868;4.700;2023-03-14T10:45:55;3.50;;;1.50;;
12554;SDS011;6343;50.868;4.700;2023-03-14T10:50:56;3.77;;;1.30;;
12554;SDS011;6343;50.868;4.700;2023-03-14T10:53:22;4.43;;;1.53;;
12554;SDS011;6343;50.868;4.700;2023-03-14T10:55:49;4.00;;;1.13;;
12554;SDS011;6343;50.868;4.700;2023-03-14T11:00:50;2.73;;;0.90;;
12554;SDS011;6343;50.868;4.700;2023-03-14T11:03:17;3.53;;;1.27;;
12554;SDS011;6343;50.868;4.700;2023-03-14T11:05:59;2.13;;;1.00;;
12554;SDS011;6343;50.868;4.700;2023-03-14T11:11:30;3.07;;;1.10;;
12554;SDS011;6343;50.868;4.700;2023-03-14T11:16:24;1.17;;;0.67;;
12554;SDS011;6343;50.868;4.700;2023-03-14T11:29:21;2.10;;;0.70;;
12554;SDS011;6343;50.868;4.700;2023-03-14T11:31:49;1.27;;;0.80;;
12554;SDS011;6343;50.868;4.700;2023-03-14T11:36:43;1.07;;;0.90;;
12554;SDS011;6343;50.868;4.700;2023-03-14T11:39:11;1.90;;;0.73;;
12554;SDS011;6343;50.868;4.700;2023-03-14T11:41:40;1.63;;;0.93;;
12554;SDS011;6343;50.868;4.700;2023-03-14T11:44:10;2.27;;;0.80;;
12554;SDS011;6343;50.868;4.700;2023-03-14T11:49:46;0.87;;;0.60;;
12554;SDS011;6343;50.868;4.700;2023-03-14T11:52:19;2.60;;;1.13;;
12554;SDS011;6343;50.868;4.700;2023-03-14T11:54:48;1.63;;;0.80;;
12554;SDS011;6343;50.868;4.700;2023-03-14T11:57:16;1.93;;;0.90;;
12554;SDS011;6343;50.868;4.700;2023-03-14T12:04:44;2.87;;;0.93;;
12554;SDS011;6343;50.868;4.700;2023-03-14T12:07:15;1.63;;;0.80;;
12554;SDS011;6343;50.868;4.700;2023-03-14T12:09:44;4.43;;;0.60;;
12554;SDS011;6343;50.868;4.700;2023-03-14T12:12:12;2.50;;;0.90;;
12554;SDS011;6343;50.868;4.700;2023-03-14T12:14:44;2.90;;;1.30;;
12554;SDS011;6343;50.868;4.700;2023-03-14T12:20:03;4.13;;;0.83;;
12554;SDS011;6343;50.868;4.700;2023-03-14T12:22:33;1.17;;;0.80;;
12554;SDS011;6343;50.868;4.700;2023-03-14T12:25:03;4.03;;;0.90;;
12554;SDS011;6343;50.868;4.700;2023-03-14T12:27:44;1.97;;;0.90;;
12554;SDS011;6343;50.868;4.700;2023-03-14T12:33:40;1.53;;;0.70;;
12554;SDS011;6343;50.868;4.700;2023-03-14T12:35:45;1.37;;;0.70;;
12554;SDS011;6343;50.868;4.700;2023-03-14T12:38:16;2.17;;;0.90;;
12554;SDS011;6343;50.868;4.700;2023-03-14T12:43:33;1.87;;;0.80;;
12554;SDS011;6343;50.868;4.700;2023-03-14T12:46:19;1.47;;;0.87;;
12554;SDS011;6343;50.868;4.700;2023-03-14T12:48:48;4.73;;;1.37;;
12554;SDS011;6343;50.868;4.700;2023-03-14T12:51:28;2.77;;;1.00;;
12554;SDS011;6343;50.868;4.700;2023-03-14T12:54:04;3.53;;;1.50;;
12554;SDS011;6343;50.868;4.700;2023-03-14T12:59:38;1.97;;;1.00;;
12554;SDS011;6343;50.868;4.700;2023-03-14T13:04:45;1.80;;;1.10;;
12554;SDS011;6343;50.868;4.700;2023-03-14T13:07:13;2.47;;;1.20;;
12554;SDS011;6343;50.868;4.700;2023-03-14T13:09:55;3.17;;;1.03;;
12554;SDS011;6343;50.868;4.700;2023-03-14T13:12:27;1.10;;;0.80;;
12554;SDS011;6343;50.868;4.700;2023-03-14T13:14:57;2.60;;;1.10;;
12554;SDS011;6343;50.868;4.700;2023-03-14T13:17:27;1.97;;;1.00;;
12554;SDS011;6343;50.868;4.700;2023-03-14T13:19:58;1.97;;;1.10;;
12554;SDS011;6343;50.868;4.700;2023-03-14T13:22:27;3.20;;;1.30;;
12554;SDS011;6343;50.868;4.700;2023-03-14T13:24:58;3.97;;;1.40;;
12554;SDS011;6343;50.868;4.700;2023-03-14T13:27:25;2.53;;;1.07;;
12554;SDS011;6343;50.868;4.700;2023-03-14T13:29:51;3.57;;;1.20;;
12554;SDS011;6343;50.868;4.700;2023-03-14T13:32:19;3.87;;;1.37;;
12554;SDS011;6343;50.868;4.700;2023-03-14T13:34:46;4.30;;;1.30;;
12554;SDS011;6343;50.868;4.700;2023-03-14T13:37:20;3.97;;;1.60;;
12554;SDS011;6343;50.868;4.700;2023-03-14T13:39:51;3.17;;;1.50;;
12554;SDS011;6343;50.868;4.700;2023-03-14T13:42:18;6.20;;;1.70;;
12554;SDS011;6343;50.868;4.700;2023-03-14T13:44:44;7.63;;;1.60;;
12554;SDS011;6343;50.868;4.700;2023-03-14T13:47:16;8.87;;;2.13;;
12554;SDS011;6343;50.868;4.700;2023-03-14T13:49:43;10.23;;;2.33;;
12554;SDS011;6343;50.868;4.700;2023-03-14T13:54:54;6.17;;;1.47;;
12554;SDS011;6343;50.868;4.700;2023-03-14T13:57:20;7.03;;;1.80;;
12554;SDS011;6343;50.868;4.700;2023-03-14T13:59:57;10.20;;;1.97;;
12554;SDS011;6343;50.868;4.700;2023-03-14T14:02:24;9.67;;;1.80;;
12554;SDS011;6343;50.868;4.700;2023-03-14T14:04:51;8.63;;;2.07;;
12554;SDS011;6343;50.868;4.700;2023-03-14T14:07:17;12.03;;;2.97;;
12554;SDS011;6343;50.868;4.700;2023-03-14T14:09:50;11.63;;;2.20;;
12554;SDS011;6343;50.868;4.700;2023-03-14T14:12:19;10.60;;;1.60;;
12554;SDS011;6343;50.868;4.700;2023-03-14T14:15:01;9.03;;;1.90;;
12554;SDS011;6343;50.868;4.700;2023-03-14T14:17:29;10.30;;;2.33;;
12554;SDS011;6343;50.868;4.700;2023-03-14T14:19:57;7.07;;;2.13;;
12554;SDS011;6343;50.868;4.700;2023-03-14T14:22:24;8.90;;;1.83;;
12554;SDS011;6343;50.868;4.700;2023-03-14T14:24:51;7.30;;;2.20;;
12554;SDS011;6343;50.868;4.700;2023-03-14T14:27:35;13.17;;;2.60;;
12554;SDS011;6343;50.868;4.700;2023-03-14T14:30:06;10.17;;;2.70;;
12554;SDS011;6343;50.868;4.700;2023-03-14T14:32:50;10.50;;;2.07;;
12554;SDS011;6343;50.868;4.700;2023-03-14T14:35:30;4.97;;;1.80;;
12554;SDS011;6343;50.868;4.700;2023-03-14T14:37:56;14.23;;;3.50;;
12554;SDS011;6343;50.868;4.700;2023-03-14T14:40:26;11.67;;;2.73;;
12554;SDS011;6343;50.868;4.700;2023-03-14T14:42:53;8.27;;;2.27;;
12554;SDS011;6343;50.868;4.700;2023-03-14T14:45:20;8.97;;;2.73;;
12554;SDS011;6343;50.868;4.700;2023-03-14T14:47:54;9.17;;;2.50;;
12554;SDS011;6343;50.868;4.700;2023-03-14T14:52:55;8.53;;;2.07;;
12554;SDS011;6343;50.868;4.700;2023-03-14T14:55:21;6.33;;;2.53;;
12554;SDS011;6343;50.868;4.700;2023-03-14T14:57:54;8.57;;;2.23;;
12554;SDS011;6343;50.868;4.700;2023-03-14T15:00:24;12.87;;;2.33;;
12554;SDS011;6343;50.868;4.700;2023-03-14T15:02:54;7.40;;;1.77;;
12554;SDS011;6343;50.868;4.700;2023-03-14T15:05:23;3.37;;;1.60;;
12554;SDS011;6343;50.868;4.700;2023-03-14T15:07:49;9.40;;;1.73;;
12554;SDS011;6343;50.868;4.700;2023-03-14T15:10:17;4.50;;;1.00;;
12554;SDS011;6343;50.868;4.700;2023-03-14T15:12:43;5.30;;;1.17;;
12554;SDS011;6343;50.868;4.700;2023-03-14T15:15:10;2.93;;;0.93;;
12554;SDS011;6343;50.868;4.700;2023-03-14T15:17:37;5.90;;;1.07;;
12554;SDS011;6343;50.868;4.700;2023-03-14T15:20:04;4.57;;;1.23;;
12554;SDS011;6343;50.868;4.700;2023-03-14T15:22:30;5.40;;;0.90;;
12554;SDS011;6343;50.868;4.700;2023-03-14T15:24:56;6.73;;;1.17;;
12554;SDS011;6343;50.868;4.700;2023-03-14T15:27:23;5.07;;;1.30;;
12554;SDS011;6343;50.868;4.700;2023-03-14T15:29:49;3.67;;;1.00;;
12554;SDS011;6343;50.868;4.700;2023-03-14T15:32:16;4.10;;;1.20;;
12554;SDS011;6343;50.868;4.700;2023-03-14T15:34:43;3.87;;;1.27;;
12554;SDS011;6343;50.868;4.700;2023-03-14T15:37:13;6.37;;;1.17;;
12554;SDS011;6343;50.868;4.700;2023-03-14T15:39:40;4.57;;;1.77;;
12554;SDS011;6343;50.868;4.700;2023-03-14T15:42:06;5.27;;;1.13;;
12554;SDS011;6343;50.868;4.700;2023-03-14T15:44:33;1.70;;;1.10;;
12554;SDS011;6343;50.868;4.700;2023-03-14T15:46:59;5.07;;;1.80;;
12554;SDS011;6343;50.868;4.700;2023-03-14T15:49:26;3.50;;;1.00;;
12554;SDS011;6343;50.868;4.700;2023-03-14T15:51:52;3.17;;;1.00;;
12554;SDS011;6343;50.868;4.700;2023-03-14T15:54:18;3.87;;;1.20;;
12554;SDS011;6343;50.868;4.700;2023-03-14T15:56:44;6.47;;;1.10;;
12554;SDS011;6343;50.868;4.700;2023-03-14T15:59:10;5.43;;;1.20;;
12554;SDS011;6343;50.868;4.700;2023-03-14T16:01:36;4.43;;;1.40;;
12554;SDS011;6343;50.868;4.700;2023-03-14T16:04:02;3.87;;;1.07;;
12554;SDS011;6343;50.868;4.700;2023-03-14T16:06:28;3.50;;;1.50;;
12554;SDS011;6343;50.868;4.700;2023-03-14T16:08:55;5.37;;;1.50;;